Time;durP1;ratioP1;P1;durP2;ratioP2;P2;SDS_P1;SDS_P2;PMS_P1;PMS_P2;Temp;Humidity;BMP_temperature;BMP_pressure;BME280_temperature;BME280_humidity;BME280_pressure;Samples;Min_cycle;Max_cycle;Signal;HPM_P1;HPM_P2
2023/07/20 00:00:30;;;;;;;26.73;22.25;;;14.50;99.90;;;;;;5031952;28;20049;-71
2023/07/20 00:03:16;;;;;;;27.60;22.58;;;14.60;99.90;;;;;;5034098;28;20660;-70
2023/07/20 00:05:44;;;;;;;26.65;20.90;;;14.70;99.90;;;;;;5035130;28;20033;-71
2023/07/20 00:08:11;;;;;;;26.10;22.27;;;14.70;99.90;;;;;;5031483;28;20038;-70
2023/07/20 00:10:38;;;;;;;27.70;21.60;;;14.70;99.90;;;;;;5034440;28;20504;-72
2023/07/20 00:13:05;;;;;;;24.67;20.83;;;14.70;99.90;;;;;;5038281;28;20056;-71
2023/07/20 00:15:32;;;;;;;32.95;22.92;;;14.80;99.90;;;;;;5027792;28;20047;-70
2023/07/20 00:17:59;;;;;;;33.72;22.02;;;14.80;99.90;;;;;;5034887;28;20088;-71
2023/07/20 00:20:26;;;;;;;39.60;25.20;;;14.90;99.90;;;;;;5035923;28;20060;-70
2023/07/20 00:22:54;;;;;;;34.92;23.63;;;14.90;99.90;;;;;;5032366;28;20100;-72
2023/07/20 00:25:21;;;;;;;35.60;24.63;;;14.80;99.90;;;;;;5028425;28;20111;-71
2023/07/20 00:27:48;;;;;;;40.97;25.13;;;14.70;99.90;;;;;;5035326;28;20045;-71
2023/07/20 00:30:15;;;;;;;42.70;27.15;;;14.60;99.90;;;;;;5048195;28;20054;-71
2023/07/20 00:32:43;;;;;;;36.38;27.88;;;14.50;99.90;;;;;;5049422;28;20415;-71
2023/07/20 00:35:11;;;;;;;35.70;27.23;;;14.50;99.90;;;;;;5038180;28;20159;-70
2023/07/20 00:37:39;;;;;;;38.13;29.45;;;14.40;99.90;;;;;;5029363;28;21643;-70
2023/07/20 00:40:09;;;;;;;44.67;30.25;;;14.50;99.90;;;;;;5040220;28;20045;-70
2023/07/20 00:42:36;;;;;;;44.65;30.40;;;14.60;99.90;;;;;;5026832;28;20116;-72
2023/07/20 00:45:03;;;;;;;40.72;27.02;;;14.60;99.90;;;;;;5037202;28;20155;-72
2023/07/20 00:47:30;;;;;;;47.10;27.20;;;14.50;99.90;;;;;;5031040;28;20044;-72
2023/07/20 00:49:58;;;;;;;42.97;28.30;;;14.40;99.90;;;;;;5036638;28;20043;-71
2023/07/20 00:52:27;;;;;;;44.05;27.25;;;14.40;99.90;;;;;;5035286;28;20045;-71
2023/07/20 00:54:56;;;;;;;50.03;29.00;;;14.50;99.90;;;;;;5038712;28;20087;-71
2023/07/20 00:57:25;;;;;;;46.63;27.98;;;14.40;99.90;;;;;;5026526;28;20128;-71
2023/07/20 00:59:52;;;;;;;39.92;26.30;;;14.50;99.90;;;;;;5052868;28;20066;-71
2023/07/20 01:02:19;;;;;;;41.40;23.10;;;14.50;99.90;;;;;;5035152;28;20064;-70
2023/07/20 01:04:47;;;;;;;32.80;22.42;;;14.50;99.90;;;;;;5025080;28;20290;-71
2023/07/20 01:07:30;;;;;;;41.17;26.05;;;14.50;99.90;;;;;;5045711;28;20054;-71
2023/07/20 01:10:31;;;;;;;31.60;20.67;;;14.60;99.90;;;;;;5035033;28;20044;-71
2023/07/20 01:13:00;;;;;;;32.78;21.52;;;14.60;99.90;;;;;;5037570;28;20041;-71
2023/07/20 01:15:27;;;;;;;37.88;23.27;;;14.50;99.90;;;;;;5038751;28;20106;-71
2023/07/20 01:17:54;;;;;;;38.65;25.17;;;14.40;99.90;;;;;;5039595;28;20100;-73
2023/07/20 01:20:23;;;;;;;56.85;30.83;;;14.50;99.90;;;;;;5046701;28;20458;-71
2023/07/20 01:23:11;;;;;;;59.55;32.65;;;14.50;99.90;;;;;;5047310;28;20045;-72
2023/07/20 01:26:02;;;;;;;73.32;36.05;;;14.50;99.90;;;;;;5046592;28;20040;-71
2023/07/20 01:29:10;;;;;;;73.88;38.45;;;14.50;99.90;;;;;;5047496;28;20052;-70
2023/07/20 01:31:41;;;;;;;73.47;39.42;;;14.50;99.90;;;;;;4930934;28;20086;-70
2023/07/20 01:34:11;;;;;;;79.22;40.30;;;14.50;99.90;;;;;;4942086;28;20047;-70
2023/07/20 01:36:39;;;;;;;76.13;40.70;;;14.40;99.90;;;;;;4988008;28;20047;-70
2023/07/20 01:39:07;;;;;;;82.18;41.83;;;14.40;99.90;;;;;;5036874;28;21076;-70
2023/07/20 01:41:34;;;;;;;83.70;42.72;;;14.50;99.90;;;;;;5030181;28;20132;-70
2023/07/20 01:44:03;;;;;;;72.47;40.53;;;14.50;99.90;;;;;;5040738;28;20037;-70
2023/07/20 01:46:30;;;;;;;65.32;39.50;;;14.50;99.90;;;;;;5033557;28;20040;-71
2023/07/20 01:48:58;;;;;;;71.93;39.17;;;14.60;99.90;;;;;;5048004;28;20046;-71
2023/07/20 01:51:24;;;;;;;73.63;41.42;;;14.50;99.90;;;;;;5043030;28;20041;-70
2023/07/20 01:53:51;;;;;;;74.25;40.35;;;14.60;99.90;;;;;;5038916;28;20446;-70
2023/07/20 01:56:18;;;;;;;85.32;43.95;;;14.60;99.90;;;;;;5034889;28;20037;-71
2023/07/20 01:58:45;;;;;;;90.75;45.80;;;14.60;99.90;;;;;;5032632;28;20950;-70
2023/07/20 02:01:12;;;;;;;93.65;47.30;;;14.60;99.90;;;;;;5052993;28;20051;-70
2023/07/20 02:03:38;;;;;;;102.22;52.13;;;14.60;99.90;;;;;;5049383;28;20135;-70
2023/07/20 02:06:05;;;;;;;117.18;54.28;;;14.60;99.90;;;;;;5035875;28;20044;-71
2023/07/20 02:08:32;;;;;;;123.85;57.60;;;14.60;99.90;;;;;;5036237;28;20052;-71
2023/07/20 02:10:58;;;;;;;122.18;59.08;;;14.60;99.90;;;;;;5034943;28;20072;-71
2023/07/20 02:13:25;;;;;;;144.60;61.38;;;14.60;99.90;;;;;;5038019;28;20106;-71
2023/07/20 02:15:52;;;;;;;127.63;62.03;;;14.60;99.90;;;;;;5039409;28;20041;-71
2023/07/20 02:18:20;;;;;;;112.05;59.25;;;14.60;99.90;;;;;;5038032;28;20055;-71
2023/07/20 02:20:47;;;;;;;129.60;62.15;;;14.60;99.90;;;;;;5045072;28;20573;-71
2023/07/20 02:23:14;;;;;;;124.82;63.20;;;14.60;99.90;;;;;;5035717;28;20114;-71
2023/07/20 02:25:41;;;;;;;115.40;57.47;;;14.60;99.90;;;;;;5029259;28;20693;-71
2023/07/20 02:28:09;;;;;;;126.90;61.47;;;14.60;99.90;;;;;;5039328;28;20418;-71
2023/07/20 02:30:39;;;;;;;121.65;58.47;;;14.50;99.90;;;;;;5029769;28;20045;-71
2023/07/20 02:33:06;;;;;;;112.35;56.92;;;14.50;99.90;;;;;;5038006;28;20457;-71
2023/07/20 02:35:33;;;;;;;105.10;55.13;;;14.50;99.90;;;;;;5034634;28;20045;-71
2023/07/20 02:38:00;;;;;;;106.88;55.58;;;14.50;99.90;;;;;;5036566;28;20104;-71
2023/07/20 02:40:27;;;;;;;113.32;58.17;;;14.50;99.90;;;;;;5035486;28;20043;-72
2023/07/20 02:42:54;;;;;;;100.38;53.65;;;14.50;99.90;;;;;;5033140;28;21352;-71
2023/07/20 02:45:21;;;;;;;102.97;55.15;;;14.50;99.90;;;;;;5040259;28;20048;-71
2023/07/20 02:47:47;;;;;;;104.65;53.75;;;14.50;99.90;;;;;;5033316;28;21646;-71
2023/07/20 02:50:14;;;;;;;98.25;54.95;;;14.50;99.90;;;;;;5040526;28;20044;-71
2023/07/20 02:52:41;;;;;;;98.95;55.08;;;14.50;99.90;;;;;;5049438;28;20060;-72
2023/07/20 02:55:09;;;;;;;99.85;55.10;;;14.60;99.90;;;;;;5031743;28;20053;-70
2023/07/20 02:57:35;;;;;;;104.05;55.42;;;14.60;99.90;;;;;;5032875;28;20040;-72
2023/07/20 03:00:05;;;;;;;101.10;54.45;;;14.60;99.90;;;;;;5049025;28;20036;-70
2023/07/20 03:02:32;;;;;;;104.32;56.08;;;14.60;99.90;;;;;;5021099;28;20518;-70
2023/07/20 03:05:00;;;;;;;105.15;55.65;;;14.60;99.90;;;;;;5042688;28;20140;-71
2023/07/20 03:07:28;;;;;;;118.72;62.10;;;14.60;99.90;;;;;;5022781;28;20751;-72
2023/07/20 03:09:55;;;;;;;112.85;61.15;;;14.70;99.90;;;;;;5015602;28;20805;-71
2023/07/20 03:12:22;;;;;;;115.40;60.72;;;14.60;99.90;;;;;;5018549;28;20048;-72
2023/07/20 03:14:49;;;;;;;119.63;65.45;;;14.60;99.90;;;;;;5037128;28;21381;-70
2023/07/20 03:17:15;;;;;;;122.95;62.10;;;14.60;99.90;;;;;;5030103;28;20411;-70
2023/07/20 03:19:43;;;;;;;125.65;66.68;;;14.60;99.90;;;;;;5025580;28;20384;-71
2023/07/20 03:22:10;;;;;;;128.35;62.83;;;14.60;99.90;;;;;;5039307;28;20253;-71
2023/07/20 03:24:37;;;;;;;132.20;66.00;;;14.60;99.90;;;;;;5043113;28;20522;-71
2023/07/20 03:27:04;;;;;;;129.65;68.30;;;14.60;99.90;;;;;;5031554;28;20033;-71
2023/07/20 03:29:32;;;;;;;137.48;67.55;;;14.50;99.90;;;;;;5031551;28;20056;-71
2023/07/20 03:31:59;;;;;;;122.72;65.95;;;14.60;99.90;;;;;;5031171;28;20038;-71
2023/07/20 03:34:26;;;;;;;118.30;63.63;;;14.60;99.90;;;;;;5030373;28;20045;-71
2023/07/20 03:36:53;;;;;;;123.97;63.97;;;14.60;99.90;;;;;;5036998;28;20052;-71
2023/07/20 03:39:21;;;;;;;134.50;68.95;;;14.60;99.90;;;;;;5032726;28;20071;-71
2023/07/20 03:41:48;;;;;;;130.45;68.03;;;14.70;99.90;;;;;;5031547;28;21478;-71
2023/07/20 03:44:15;;;;;;;128.63;67.50;;;14.60;99.90;;;;;;5044008;28;20107;-71
2023/07/20 03:46:43;;;;;;;129.05;70.03;;;14.60;99.90;;;;;;5034096;28;20205;-70
2023/07/20 03:49:10;;;;;;;126.28;69.90;;;14.70;99.90;;;;;;5043158;28;20044;-71
2023/07/20 03:51:37;;;;;;;120.65;66.68;;;14.70;99.90;;;;;;5034873;28;20041;-71
2023/07/20 03:54:03;;;;;;;132.57;68.82;;;14.70;99.90;;;;;;5045572;28;20044;-71
2023/07/20 03:56:34;;;;;;;128.07;66.65;;;14.60;99.90;;;;;;5034498;28;20051;-70
2023/07/20 03:59:01;;;;;;;126.45;67.80;;;14.50;99.90;;;;;;5024313;28;20094;-70
2023/07/20 04:01:28;;;;;;;135.18;71.38;;;14.60;99.90;;;;;;5045635;28;20593;-71
2023/07/20 04:03:56;;;;;;;121.43;71.00;;;14.50;99.90;;;;;;5032952;28;20068;-71
2023/07/20 04:06:22;;;;;;;125.90;72.47;;;14.60;99.90;;;;;;5033888;28;20036;-71
2023/07/20 04:08:50;;;;;;;126.95;72.32;;;14.50;99.90;;;;;;5020762;28;20053;-71
2023/07/20 04:11:17;;;;;;;125.78;72.30;;;14.50;99.90;;;;;;5031801;28;20128;-71
2023/07/20 04:13:43;;;;;;;138.20;73.82;;;14.60;99.90;;;;;;5035097;28;20049;-71
2023/07/20 04:16:10;;;;;;;133.55;74.95;;;14.60;99.90;;;;;;5046314;28;20049;-71
2023/07/20 04:18:37;;;;;;;132.73;74.68;;;14.60;99.90;;;;;;5029595;28;20123;-71
2023/07/20 04:21:04;;;;;;;143.23;74.40;;;14.70;99.90;;;;;;5034536;28;20119;-71
2023/07/20 04:23:31;;;;;;;128.00;73.22;;;14.80;99.90;;;;;;5041761;28;20041;-71
2023/07/20 04:25:58;;;;;;;123.13;72.45;;;14.70;99.90;;;;;;5038859;28;20075;-71
2023/07/20 04:28:25;;;;;;;133.70;73.55;;;14.60;99.90;;;;;;5046990;28;20060;-71
2023/07/20 04:30:52;;;;;;;140.35;74.50;;;14.80;99.90;;;;;;5023741;28;20046;-70
2023/07/20 04:33:19;;;;;;;124.45;70.22;;;14.80;99.90;;;;;;5040228;28;20661;-72
2023/07/20 04:35:53;;;;;;;137.00;71.75;;;14.80;99.90;;;;;;5029687;28;20045;-74
2023/07/20 04:38:29;;;;;;;155.25;76.55;;;14.80;99.90;;;;;;5022972;28;20059;-72
2023/07/20 04:41:20;;;;;;;165.23;75.32;;;14.70;99.90;;;;;;5028463;28;20040;-73
2023/07/20 04:43:49;;;;;;;130.45;67.45;;;14.70;99.90;;;;;;5032425;28;20156;-72
2023/07/20 04:46:23;;;;;;;105.70;56.80;;;14.60;99.90;;;;;;5038655;28;20244;-70
2023/07/20 04:48:51;;;;;;;34.83;24.15;;;14.50;99.90;;;;;;5029863;28;20041;-72
2023/07/20 04:51:20;;;;;;;17.02;13.60;;;14.20;99.90;;;;;;5038920;28;20049;-72
2023/07/20 04:53:49;;;;;;;13.00;11.40;;;13.90;99.90;;;;;;5037069;28;20045;-72
2023/07/20 04:56:16;;;;;;;14.15;11.30;;;13.90;99.90;;;;;;5045664;28;20132;-71
2023/07/20 04:58:43;;;;;;;14.60;12.35;;;13.80;99.90;;;;;;5054145;28;20044;-72
2023/07/20 05:01:10;;;;;;;17.63;15.45;;;13.90;99.90;;;;;;5042656;28;20140;-71
2023/07/20 05:03:38;;;;;;;25.77;16.30;;;13.90;99.90;;;;;;5042447;28;20053;-69
2023/07/20 05:06:08;;;;;;;26.65;20.13;;;14.00;99.90;;;;;;5037992;28;20045;-70
2023/07/20 05:08:35;;;;;;;32.75;23.05;;;14.00;99.90;;;;;;5032080;28;20049;-70
2023/07/20 05:11:03;;;;;;;40.20;29.23;;;14.10;99.90;;;;;;5033591;28;20148;-69
2023/07/20 05:13:29;;;;;;;44.05;30.00;;;14.30;99.90;;;;;;5049501;28;20044;-70
2023/07/20 05:15:56;;;;;;;53.25;33.80;;;14.30;99.90;;;;;;5030929;28;20414;-70
2023/07/20 05:18:24;;;;;;;63.72;38.40;;;14.30;99.90;;;;;;5039769;28;20135;-71
2023/07/20 05:20:51;;;;;;;75.90;42.55;;;14.40;99.90;;;;;;5032685;28;20128;-70
2023/07/20 05:23:19;;;;;;;75.45;43.40;;;14.30;99.90;;;;;;5051844;28;20056;-70
2023/07/20 05:25:47;;;;;;;71.82;42.17;;;14.30;99.90;;;;;;5037011;28;20044;-70
2023/07/20 05:28:13;;;;;;;66.43;40.03;;;14.30;99.90;;;;;;5038987;28;20071;-70
2023/07/20 05:30:40;;;;;;;59.65;37.75;;;14.20;99.90;;;;;;5033960;28;20037;-71
2023/07/20 05:33:07;;;;;;;66.85;38.08;;;14.20;99.90;;;;;;5030260;28;20118;-71
2023/07/20 05:35:36;;;;;;;69.75;38.97;;;14.30;99.90;;;;;;5034860;28;20128;-71
2023/07/20 05:38:05;;;;;;;64.93;37.38;;;14.30;99.90;;;;;;5044988;28;20045;-71
2023/07/20 05:40:31;;;;;;;60.15;36.08;;;14.20;99.90;;;;;;5037082;28;20527;-73
2023/07/20 05:43:00;;;;;;;51.13;34.20;;;14.30;99.90;;;;;;5026295;28;20052;-70
2023/07/20 05:45:27;;;;;;;50.20;31.90;;;14.30;99.90;;;;;;5040539;28;20106;-71
2023/07/20 05:47:53;;;;;;;51.17;32.42;;;14.20;99.90;;;;;;5036983;28;20041;-71
2023/07/20 05:50:20;;;;;;;48.63;30.48;;;14.20;99.90;;;;;;5033367;28;20110;-71
2023/07/20 05:52:47;;;;;;;36.45;25.02;;;14.20;99.90;;;;;;5045719;28;20045;-71
2023/07/20 05:55:14;;;;;;;31.38;24.60;;;14.00;99.90;;;;;;5039398;28;20048;-70
2023/07/20 05:57:42;;;;;;;33.42;23.83;;;13.90;99.90;;;;;;5026388;28;20037;-71
2023/07/20 06:00:10;;;;;;;39.13;24.60;;;14.00;99.90;;;;;;5032215;28;20064;-71
2023/07/20 06:02:42;;;;;;;34.75;22.42;;;14.10;99.90;;;;;;5034618;28;20068;-70
2023/07/20 06:05:12;;;;;;;30.95;21.90;;;14.10;99.90;;;;;;5034853;28;20042;-70
2023/07/20 06:07:39;;;;;;;24.65;19.50;;;14.00;99.90;;;;;;5040953;28;20080;-70
2023/07/20 06:10:06;;;;;;;19.25;15.23;;;14.00;99.90;;;;;;5038427;28;20037;-70
2023/07/20 06:12:33;;;;;;;16.77;13.63;;;13.90;99.90;;;;;;5032682;28;20768;-71
2023/07/20 06:15:05;;;;;;;15.30;13.70;;;13.80;99.90;;;;;;5033597;28;20594;-71
2023/07/20 06:17:32;;;;;;;14.98;13.15;;;13.80;99.90;;;;;;5040431;28;20599;-71
2023/07/20 06:19:59;;;;;;;15.70;14.10;;;13.80;99.90;;;;;;5031079;28;21080;-70
2023/07/20 06:22:26;;;;;;;19.67;14.25;;;13.70;99.90;;;;;;5040084;28;20052;-70
2023/07/20 06:24:53;;;;;;;18.27;15.25;;;13.70;99.90;;;;;;5034326;28;20072;-73
2023/07/20 06:27:19;;;;;;;19.90;15.80;;;13.70;99.90;;;;;;5028291;28;20049;-72
2023/07/20 06:29:46;;;;;;;19.88;16.67;;;13.80;99.90;;;;;;5028042;28;20049;-71
2023/07/20 06:32:13;;;;;;;21.25;16.33;;;13.90;99.90;;;;;;5041738;28;20103;-70
2023/07/20 06:34:40;;;;;;;18.52;16.02;;;13.90;99.90;;;;;;5032292;28;20048;-72
2023/07/20 06:37:07;;;;;;;17.92;14.70;;;14.20;99.90;;;;;;5043563;28;20128;-70
2023/07/20 06:39:34;;;;;;;19.58;15.65;;;14.20;99.90;;;;;;5042202;28;20101;-70
2023/07/20 06:42:04;;;;;;;17.17;15.15;;;14.40;99.90;;;;;;5026002;28;20126;-73
2023/07/20 06:44:31;;;;;;;19.25;15.10;;;14.60;99.90;;;;;;5040141;28;20046;-70
2023/07/20 06:46:57;;;;;;;15.18;13.40;;;15.00;99.90;;;;;;5034661;28;20044;-70
2023/07/20 06:49:26;;;;;;;14.18;12.68;;;15.30;99.90;;;;;;5043256;28;20110;-70
2023/07/20 06:51:53;;;;;;;13.20;11.90;;;15.10;99.90;;;;;;5028118;28;20068;-70
2023/07/20 06:54:20;;;;;;;12.70;11.50;;;15.20;99.90;;;;;;5032669;28;20045;-72
2023/07/20 06:56:50;;;;;;;12.93;11.63;;;15.20;99.90;;;;;;5026625;28;20466;-70
2023/07/20 06:59:36;;;;;;;10.93;9.93;;;15.30;99.90;;;;;;5047317;28;20119;-70
2023/07/20 07:02:08;;;;;;;10.80;10.10;;;15.30;99.90;;;;;;5030189;28;20036;-71
2023/07/20 07:04:41;;;;;;;10.95;10.35;;;15.30;99.90;;;;;;5044031;28;20049;-70
2023/07/20 07:07:09;;;;;;;11.48;10.82;;;15.30;99.90;;;;;;5031543;28;20132;-70
2023/07/20 07:09:36;;;;;;;12.10;11.25;;;15.50;99.90;;;;;;5031160;28;20486;-71
2023/07/20 07:12:04;;;;;;;11.00;10.30;;;15.60;99.90;;;;;;5024511;28;20164;-69
2023/07/20 07:14:31;;;;;;;10.57;9.77;;;15.70;99.90;;;;;;5031830;28;20053;-71
2023/07/20 07:16:59;;;;;;;11.82;11.02;;;15.70;99.90;;;;;;5024858;28;20049;-71
2023/07/20 07:19:31;;;;;;;13.38;12.27;;;15.40;99.90;;;;;;5041369;28;20055;-72
2023/07/20 07:21:57;;;;;;;12.55;11.85;;;15.10;99.90;;;;;;5030279;28;20041;-72
2023/07/20 07:24:27;;;;;;;12.15;11.25;;;14.80;99.90;;;;;;5044893;28;20139;-72
2023/07/20 07:26:55;;;;;;;10.70;10.00;;;14.70;99.90;;;;;;5043982;28;20200;-72
2023/07/20 07:29:22;;;;;;;9.30;8.68;;;14.80;99.90;;;;;;5039817;28;20591;-72
2023/07/20 07:31:48;;;;;;;9.82;9.13;;;14.80;99.90;;;;;;5025198;28;20053;-72
2023/07/20 07:34:15;;;;;;;9.93;9.38;;;14.90;99.90;;;;;;5034206;28;20075;-72
2023/07/20 07:36:43;;;;;;;10.63;9.90;;;14.90;99.90;;;;;;5034293;28;20102;-73
2023/07/20 07:39:10;;;;;;;10.80;10.20;;;15.10;99.90;;;;;;5034397;28;20040;-72
2023/07/20 07:41:40;;;;;;;11.65;10.77;;;15.20;99.90;;;;;;5033507;28;20037;-70
2023/07/20 07:44:07;;;;;;;12.77;12.18;;;15.40;99.90;;;;;;5025956;28;20076;-71
2023/07/20 07:46:33;;;;;;;13.82;13.02;;;15.60;99.90;;;;;;5041770;28;20044;-70
2023/07/20 07:49:00;;;;;;;14.07;13.25;;;15.80;99.90;;;;;;5030491;28;20041;-71
2023/07/20 07:51:27;;;;;;;15.68;14.88;;;16.20;99.90;;;;;;5030903;28;20651;-71
2023/07/20 07:53:54;;;;;;;15.68;14.90;;;16.60;99.90;;;;;;5040346;28;20686;-71
2023/07/20 07:56:22;;;;;;;16.52;15.73;;;16.90;99.90;;;;;;5034100;28;21821;-71
2023/07/20 07:58:53;;;;;;;17.70;16.63;;;17.10;99.90;;;;;;5034667;28;20160;-72
2023/07/20 08:01:20;;;;;;;20.50;19.40;;;17.40;99.90;;;;;;5039069;28;20059;-70
2023/07/20 08:03:47;;;;;;;19.60;18.50;;;17.60;99.90;;;;;;5038850;28;20112;-72
2023/07/20 08:06:14;;;;;;;21.45;20.25;;;18.00;99.90;;;;;;5038558;28;20144;-71
2023/07/20 08:08:42;;;;;;;24.33;22.90;;;17.70;99.90;;;;;;5031931;28;20098;-70
2023/07/20 08:11:09;;;;;;;23.75;22.45;;;17.70;99.90;;;;;;5038186;28;20044;-71
2023/07/20 08:13:36;;;;;;;23.70;22.23;;;17.60;99.90;;;;;;5030292;28;20454;-71
2023/07/20 08:16:03;;;;;;;23.67;22.08;;;17.60;99.90;;;;;;5031275;28;20037;-71
2023/07/20 08:18:31;;;;;;;22.40;21.20;;;17.60;99.90;;;;;;5036338;28;20045;-71
2023/07/20 08:20:58;;;;;;;22.60;21.27;;;17.80;99.90;;;;;;5023396;28;20041;-71
2023/07/20 08:23:24;;;;;;;22.20;20.73;;;17.80;99.90;;;;;;5033776;28;20106;-73
2023/07/20 08:25:51;;;;;;;22.05;20.75;;;17.40;99.90;;;;;;5040337;28;20127;-73
2023/07/20 08:28:18;;;;;;;23.65;22.25;;;17.00;99.90;;;;;;5037556;28;20107;-73
2023/07/20 08:30:46;;;;;;;24.42;23.02;;;16.90;99.90;;;;;;5039997;28;20550;-73
2023/07/20 08:33:15;;;;;;;24.60;23.17;;;17.20;99.90;;;;;;5034219;28;20108;-73
2023/07/20 08:35:42;;;;;;;24.05;22.65;;;17.50;99.90;;;;;;5035024;28;20691;-73
2023/07/20 08:38:09;;;;;;;24.80;23.40;;;17.90;99.90;;;;;;5033081;28;21193;-73
2023/07/20 08:40:44;;;;;;;25.73;24.20;;;18.10;99.90;;;;;;5037840;28;20045;-73
2023/07/20 08:43:11;;;;;;;26.15;24.45;;;18.20;99.90;;;;;;5028480;28;20111;-72
2023/07/20 08:45:42;;;;;;;25.60;23.98;;;18.20;99.90;;;;;;5031572;28;20053;-75
2023/07/20 08:48:09;;;;;;;23.65;22.15;;;18.50;99.90;;;;;;5029520;28;20072;-74
2023/07/20 08:50:36;;;;;;;23.63;22.10;;;18.80;99.90;;;;;;5053129;28;20076;-73
2023/07/20 08:53:03;;;;;;;25.08;23.48;;;18.70;99.90;;;;;;5031929;28;20106;-75
2023/07/20 08:55:31;;;;;;;25.45;23.85;;;18.50;99.90;;;;;;5035673;28;20099;-75
2023/07/20 08:58:00;;;;;;;26.30;24.70;;;18.30;99.90;;;;;;5032151;28;20099;-73
2023/07/20 09:00:29;;;;;;;25.85;24.35;;;18.40;99.90;;;;;;5042861;28;20655;-73
2023/07/20 09:02:56;;;;;;;25.23;23.73;;;18.80;99.90;;;;;;5035648;28;20448;-73
2023/07/20 09:05:26;;;;;;;26.30;24.80;;;19.10;99.90;;;;;;5035648;28;20037;-73
2023/07/20 09:07:53;;;;;;;26.20;24.58;;;19.20;99.90;;;;;;5035129;28;20189;-73
2023/07/20 09:10:21;;;;;;;26.52;24.92;;;19.30;99.90;;;;;;5048954;28;20764;-73
2023/07/20 09:12:48;;;;;;;26.25;24.75;;;19.60;99.90;;;;;;5036845;28;20045;-73
2023/07/20 09:15:16;;;;;;;28.35;26.42;;;19.60;99.90;;;;;;5038935;28;20121;-72
2023/07/20 09:17:48;;;;;;;27.55;25.77;;;19.70;99.90;;;;;;5035999;28;20041;-73
2023/07/20 09:20:17;;;;;;;25.52;23.83;;;19.90;99.90;;;;;;5035410;28;20055;-74
2023/07/20 09:22:49;;;;;;;25.58;23.77;;;19.80;99.90;;;;;;5039186;28;20499;-73
2023/07/20 09:25:19;;;;;;;27.58;25.88;;;19.50;99.90;;;;;;5051769;28;20053;-74
2023/07/20 09:27:49;;;;;;;25.60;23.90;;;19.30;99.90;;;;;;5041526;28;20045;-74
2023/07/20 09:30:18;;;;;;;26.98;24.98;;;19.40;99.90;;;;;;5028964;28;20045;-73
2023/07/20 09:32:47;;;;;;;25.42;23.80;;;19.40;99.90;;;;;;5051950;28;20064;-73
2023/07/20 09:35:18;;;;;;;25.60;23.67;;;19.60;99.90;;;;;;5046790;28;20046;-74
2023/07/20 09:37:59;;;;;;;28.17;26.38;;;19.50;99.90;;;;;;5037241;28;20080;-73
2023/07/20 09:40:29;;;;;;;28.25;26.35;;;19.50;99.90;;;;;;5058477;28;20121;-73
2023/07/20 09:43:04;;;;;;;28.63;26.38;;;19.80;99.90;;;;;;5037248;28;20032;-75
2023/07/20 09:45:34;;;;;;;26.35;24.55;;;20.10;99.90;;;;;;5034513;28;21599;-73
2023/07/20 09:48:08;;;;;;;27.40;25.35;;;20.00;99.90;;;;;;5038517;28;20695;-74
2023/07/20 09:50:43;;;;;;;29.48;27.10;;;19.80;99.90;;;;;;5030112;28;20597;-72
2023/07/20 09:53:15;;;;;;;28.58;26.88;;;19.80;99.90;;;;;;5021442;28;20158;-73
2023/07/20 09:55:47;;;;;;;28.70;26.95;;;20.00;99.90;;;;;;5041534;28;20053;-73
2023/07/20 09:58:15;;;;;;;30.45;28.35;;;20.40;99.90;;;;;;5032208;28;20055;-73
2023/07/20 10:00:46;;;;;;;29.02;27.08;;;20.70;99.90;;;;;;5033214;28;20680;-73
2023/07/20 10:03:21;;;;;;;28.60;26.60;;;20.90;99.90;;;;;;5047071;28;20049;-73
2023/07/20 10:05:53;;;;;;;30.08;28.17;;;21.30;99.90;;;;;;5028389;28;20049;-73
2023/07/20 10:08:23;;;;;;;26.38;24.58;;;21.20;99.90;;;;;;5032869;28;20048;-74
2023/07/20 10:10:53;;;;;;;26.60;24.80;;;21.30;99.90;;;;;;5034872;28;20074;-74
2023/07/20 10:13:26;;;;;;;29.42;27.52;;;21.10;99.90;;;;;;5036401;28;20674;-74
2023/07/20 10:16:03;;;;;;;28.90;27.00;;;20.80;99.90;;;;;;5034255;28;20044;-74
2023/07/20 10:18:41;;;;;;;29.98;28.08;;;20.90;99.90;;;;;;5031905;28;20167;-72
2023/07/20 10:21:09;;;;;;;27.48;25.48;;;21.30;99.90;;;;;;5024852;28;20038;-73
2023/07/20 10:23:39;;;;;;;26.75;24.95;;;20.90;99.90;;;;;;5038785;28;20037;-73
2023/07/20 10:26:08;;;;;;;26.65;24.85;;;20.50;99.90;;;;;;5037015;28;20033;-72
2023/07/20 10:28:36;;;;;;;26.30;24.23;;;20.40;99.90;;;;;;5034088;28;20055;-70
2023/07/20 10:31:03;;;;;;;29.88;27.73;;;19.90;99.90;;;;;;5033634;28;20047;-71
2023/07/20 10:33:31;;;;;;;28.67;26.88;;;20.00;99.90;;;;;;5037561;28;20487;-71
2023/07/20 10:36:02;;;;;;;30.23;28.25;;;20.00;99.90;;;;;;5034792;28;20518;-71
2023/07/20 10:38:51;;;;;;;28.60;26.70;;;20.30;99.90;;;;;;5031077;28;20052;-70
2023/07/20 10:41:27;;;;;;;28.50;26.50;;;20.80;99.90;;;;;;5029942;28;20048;-70
2023/07/20 10:44:09;;;;;;;28.70;26.80;;;21.30;99.90;;;;;;5035194;28;20658;-72
2023/07/20 10:46:39;;;;;;;27.23;25.23;;;21.20;99.90;;;;;;5028380;28;20590;-71
2023/07/20 10:49:09;;;;;;;26.70;24.90;;;21.40;99.90;;;;;;5027234;28;20497;-71
2023/07/20 10:51:49;;;;;;;30.02;28.13;;;21.20;99.90;;;;;;5033305;28;20085;-70
2023/07/20 10:54:16;;;;;;;29.85;27.85;;;20.80;99.90;;;;;;5044302;28;20068;-70
2023/07/20 10:56:44;;;;;;;28.45;26.55;;;20.90;99.90;;;;;;5029316;28;20059;-70
2023/07/20 10:59:23;;;;;;;29.65;27.70;;;20.70;99.90;;;;;;5029070;28;20037;-72
2023/07/20 11:01:55;;;;;;;27.58;25.58;;;21.30;99.90;;;;;;5049856;28;20107;-70
2023/07/20 11:04:41;;;;;;;29.42;27.42;;;21.50;99.90;;;;;;5024671;28;20364;-71
2023/07/20 11:07:08;;;;;;;28.13;26.23;;;21.50;99.90;;;;;;5024515;28;20044;-70
2023/07/20 11:09:37;;;;;;;30.95;28.85;;;21.30;99.90;;;;;;5037762;28;20052;-70
2023/07/20 11:12:17;;;;;;;29.80;27.80;;;21.30;99.90;;;;;;5030220;28;20043;-70
2023/07/20 11:14:56;;;;;;;27.33;25.42;;;21.80;99.90;;;;;;5036107;28;20045;-69
2023/07/20 11:17:30;;;;;;;30.17;28.13;;;22.00;99.90;;;;;;5031527;28;20045;-70
2023/07/20 11:20:00;;;;;;;32.20;29.83;;;22.00;99.90;;;;;;5025823;28;20103;-69
2023/07/20 11:22:34;;;;;;;29.35;27.33;;;22.00;99.90;;;;;;5050593;28;20584;-69
2023/07/20 11:25:01;;;;;;;31.40;29.20;;;22.20;99.90;;;;;;5033895;28;20858;-69
2023/07/20 11:27:28;;;;;;;30.00;28.10;;;22.40;99.90;;;;;;5024061;28;20565;-69
2023/07/20 11:29:55;;;;;;;28.08;26.17;;;22.60;99.90;;;;;;5031911;28;20079;-68
2023/07/20 11:32:24;;;;;;;30.38;28.27;;;22.80;99.90;;;;;;5028703;28;20052;-69
2023/07/20 11:34:51;;;;;;;33.00;30.80;;;22.60;99.90;;;;;;5038723;28;20048;-69
2023/07/20 11:37:18;;;;;;;28.35;26.25;;;22.50;99.90;;;;;;5025414;28;20055;-71
2023/07/20 11:39:46;;;;;;;27.55;25.65;;;22.20;99.90;;;;;;5032697;28;20551;-70
2023/07/20 11:42:13;;;;;;;33.42;31.23;;;21.80;99.90;;;;;;5044396;28;20043;-69
2023/07/20 11:45:05;;;;;;;30.63;28.60;;;21.70;99.90;;;;;;5027030;28;20044;-70
2023/07/20 11:47:32;;;;;;;33.95;31.65;;;21.80;99.90;;;;;;5024727;28;20206;-69
2023/07/20 11:50:03;;;;;;;32.22;30.02;;;21.80;99.90;;;;;;5035054;28;20536;-70
2023/07/20 11:52:31;;;;;;;32.58;30.17;;;22.10;99.90;;;;;;5034615;28;20082;-70
2023/07/20 11:54:58;;;;;;;31.00;28.80;;;22.20;99.90;;;;;;5024551;28;20047;-69
2023/07/20 11:57:25;;;;;;;31.20;29.10;;;22.30;99.90;;;;;;5025479;28;20070;-70
2023/07/20 12:00:01;;;;;;;30.38;28.35;;;22.40;99.90;;;;;;5036543;28;20063;-72
2023/07/20 12:02:31;;;;;;;30.70;28.40;;;22.60;99.90;;;;;;5024468;28;20048;-70
2023/07/20 12:04:58;;;;;;;30.55;28.45;;;22.90;99.90;;;;;;5027275;28;20049;-71
2023/07/20 12:07:27;;;;;;;31.63;29.42;;;22.60;99.90;;;;;;5022339;28;20049;-70
2023/07/20 12:10:10;;;;;;;30.95;28.85;;;22.60;99.90;;;;;;5035716;28;20052;-69
2023/07/20 12:12:42;;;;;;;30.17;28.13;;;22.80;99.90;;;;;;5035037;28;20078;-69
2023/07/20 12:15:17;;;;;;;31.55;29.45;;;22.80;99.90;;;;;;5027887;28;20079;-69
2023/07/20 12:17:51;;;;;;;30.73;28.67;;;22.80;99.90;;;;;;5027371;28;20053;-70
2023/07/20 12:20:31;;;;;;;31.75;29.65;;;22.90;99.90;;;;;;5036460;28;20047;-69
2023/07/20 12:23:07;;;;;;;33.40;31.00;;;23.00;99.90;;;;;;5030271;28;20131;-70
2023/07/20 12:25:36;;;;;;;31.60;29.50;;;23.00;99.90;;;;;;5019250;28;20053;-70
2023/07/20 12:28:12;;;;;;;32.30;30.20;;;23.00;99.90;;;;;;5030887;28;20105;-70
2023/07/20 12:30:39;;;;;;;31.95;29.75;;;23.30;99.90;;;;;;5025689;28;20231;-71
2023/07/20 12:33:07;;;;;;;33.83;31.52;;;23.50;99.90;;;;;;5016235;28;20058;-72
2023/07/20 12:35:34;;;;;;;32.40;30.20;;;23.20;99.90;;;;;;5036802;28;20050;-70